createdAt,value
2019-01-02T06:18:48.103Z,99030.38
2019-01-02T06:21:18.511Z,99036.23
2019-01-02T06:23:49.022Z,99051.81
2019-01-02T06:26:19.565Z,99043.02
2019-01-02T06:28:50.120Z,99048.36
2019-01-02T06:31:20.767Z,99059.97
2019-01-02T06:33:51.433Z,99055.23
2019-01-02T06:36:22.427Z,99059.72
2019-01-02T06:38:53.391Z,99059.30
2019-01-02T06:41:27.516Z,99066.05
2019-01-02T06:43:58.225Z,99065.56
2019-01-02T06:46:29.033Z,99062.39
2019-01-02T06:48:59.755Z,99068.65
2019-01-02T06:51:30.378Z,99077.29
2019-01-02T06:54:00.891Z,99074.13
2019-01-02T06:56:31.524Z,99073.22
2019-01-02T06:59:02.087Z,99074.25
2019-01-02T07:01:33.039Z,99083.30
2019-01-02T07:04:03.763Z,99073.22
2019-01-02T07:06:34.529Z,99078.85
2019-01-02T07:09:06.997Z,99080.13
2019-01-02T07:11:37.610Z,99084.20
2019-01-02T07:14:08.153Z,99076.02
2019-01-02T07:16:38.756Z,99078.20
2019-01-02T07:19:09.417Z,99084.45
2019-01-02T07:21:39.761Z,99076.55
2019-01-02T07:24:10.528Z,99086.46
2019-01-02T07:26:41.411Z,99086.21
2019-01-02T07:29:11.989Z,99072.30
2019-01-02T07:31:45.185Z,99081.34
2019-01-02T07:34:29.308Z,99086.89
2019-01-02T07:37:36.021Z,99091.63
2019-01-02T07:40:54.870Z,99094.87
2019-01-02T07:44:09.514Z,99106.63
2019-01-02T07:47:19.643Z,99111.27
2019-01-02T14:57:24.952Z,99889.70
2019-01-02T14:59:55.613Z,99905.45
2019-01-02T15:02:26.097Z,99907.10
2019-01-02T15:04:56.592Z,99905.44
2019-01-02T15:07:27.072Z,99919.73
2019-01-02T15:09:57.484Z,99918.81
2019-01-02T15:12:27.837Z,99918.27
2019-01-02T15:14:58.197Z,99925.23
2019-01-02T15:17:28.672Z,99933.44
2019-01-02T15:19:59.173Z,99933.88
2019-01-02T15:22:29.596Z,99934.99
2019-01-02T15:25:00.287Z,99925.89
2019-01-02T15:27:30.786Z,99940.80
2019-01-02T15:30:01.788Z,99950.98
2019-01-02T15:32:32.530Z,99947.77
2019-01-02T15:35:06.805Z,99954.38
2019-01-02T15:37:37.407Z,99958.20
2019-01-02T15:40:11.224Z,99952.80
2019-01-02T15:42:41.878Z,99966.91
2019-01-02T15:45:12.441Z,99965.20
2019-01-02T15:47:43.632Z,99967.12
2019-01-02T15:50:14.431Z,99969.46
2019-01-02T15:52:45.056Z,99977.81
2019-01-02T15:55:15.998Z,99981.47
2019-01-02T15:57:46.882Z,99989.66
2019-01-02T16:00:18.839Z,99997.48
2019-01-02T16:02:49.504Z,99994.55
2019-01-02T16:05:20.502Z,100006.20
2019-01-02T16:07:51.037Z,99993.44
2019-01-02T16:10:21.637Z,99992.00
2019-01-02T16:12:52.531Z,100004.01
2019-01-02T16:15:23.340Z,100004.73
2019-01-02T16:17:54.064Z,100007.27
2019-01-02T16:20:24.847Z,100014.91
2019-01-02T16:22:55.418Z,100011.16
2019-01-02T16:25:26.858Z,100020.70
2019-01-02T16:27:57.467Z,100027.77
2019-01-02T16:30:27.987Z,100035.08
2019-01-02T16:32:58.940Z,100040.80
2019-01-02T16:35:29.352Z,100049.30
2019-01-02T16:38:00.519Z,100052.95
2019-01-02T16:40:31.218Z,100056.45
2019-01-02T16:43:01.748Z,100057.33
2019-01-02T16:45:32.590Z,100057.09
2019-01-02T16:48:03.543Z,100066.75
2019-01-02T16:50:34.122Z,100064.27
2019-01-02T16:53:04.878Z,100056.95
2019-01-02T16:55:35.496Z,100076.62
2019-01-02T16:58:06.180Z,100080.45
2019-01-02T17:00:36.820Z,100079.73
2019-01-02T17:03:07.475Z,100078.85
2019-01-02T17:05:38.516Z,100087.14
2019-01-02T17:08:09.291Z,100081.00
2019-01-02T17:10:39.895Z,100095.14
2019-01-02T17:13:10.487Z,100093.90
2019-01-02T17:15:41.018Z,100101.77
2019-01-02T17:18:11.758Z,100100.16
2019-01-02T17:20:42.499Z,100100.59
2019-01-02T17:23:13.008Z,100108.90
2019-01-02T17:25:43.666Z,100108.23
2019-01-02T17:28:14.424Z,100115.09
2019-01-02T17:30:44.997Z,100119.84
2019-01-02T17:33:15.668Z,100114.91
2019-01-02T17:35:46.197Z,100122.70
2019-01-02T17:38:18.133Z,100121.27
2019-01-02T17:40:48.701Z,100128.92
2019-01-02T17:43:19.339Z,100125.86
2019-01-02T17:45:50.088Z,100133.45
2019-01-02T17:48:20.715Z,100133.44
2019-01-02T17:50:51.270Z,100136.09
2019-01-02T17:53:22.032Z,100139.67
2019-01-02T17:55:53.124Z,100132.47
2019-01-02T17:58:24.911Z,100147.67
2019-01-02T18:01:00.631Z,100144.59
2019-01-02T18:03:31.247Z,100146.42
2019-01-02T18:06:02.225Z,100143.71
2019-01-02T18:08:32.799Z,100151.33
2019-01-02T18:11:04.679Z,100158.73
2019-01-02T18:13:35.278Z,100150.75
2019-01-02T18:16:06.079Z,100156.39
2019-01-02T18:18:36.936Z,100168.16
2019-01-02T18:21:07.677Z,100161.27
2019-01-02T18:23:39.826Z,100159.66
2019-01-02T18:26:12.221Z,100172.37
2019-01-02T18:28:43.078Z,100174.02
2019-01-02T18:31:15.512Z,100167.51
2019-01-02T18:33:46.121Z,100182.59
2019-01-02T18:36:16.910Z,100178.05
2019-01-02T18:38:50.718Z,100195.27
2019-01-02T18:41:21.477Z,100192.89
2019-01-02T18:43:55.305Z,100200.16
2019-01-02T18:46:29.087Z,100193.63
2019-01-02T18:49:00.323Z,100198.14
2019-01-02T18:51:31.782Z,100211.42
2019-01-02T18:54:05.356Z,100208.15
2019-01-02T18:56:40.660Z,100214.67
2019-01-02T18:59:12.558Z,100213.23
2019-01-02T19:01:43.264Z,100221.59
2019-01-02T19:04:13.887Z,100219.41
2019-01-02T19:06:45.022Z,100218.70
2019-01-02T19:09:16.524Z,100217.97
2019-01-02T19:11:48.571Z,100234.31
2019-01-02T19:14:19.234Z,100232.12
2019-01-02T19:16:49.920Z,100231.41
2019-01-02T19:19:25.447Z,100236.12
2019-01-02T19:21:59.649Z,100239.41
2019-01-02T19:24:33.267Z,100241.42
2019-01-02T19:27:05.584Z,100234.86
2019-01-02T19:29:41.607Z,100233.08
2019-01-02T19:32:12.284Z,100234.19
2019-01-02T19:34:43.429Z,100227.10
2019-01-02T19:37:14.170Z,100243.62
2019-01-02T19:39:44.943Z,100247.08
2019-01-02T19:42:17.469Z,100248.53
2019-01-02T19:44:50.531Z,100244.02
2019-01-02T19:47:24.245Z,100258.52
2019-01-02T19:49:57.067Z,100244.92
2019-01-02T19:52:28.978Z,100252.58
2019-01-02T19:54:59.669Z,100256.39
2019-01-02T19:57:34.774Z,100260.91
2019-01-02T20:00:08.918Z,100249.47
2019-01-02T20:02:39.544Z,100256.34
2019-01-02T20:05:15.982Z,100259.62
2019-01-02T20:07:50.666Z,100269.60
2019-01-02T20:10:31.653Z,100265.62
2019-01-02T20:13:13.277Z,100277.39
2019-01-02T20:15:44.100Z,100270.70
2019-01-02T20:18:17.319Z,100275.21
2019-01-02T20:20:49.536Z,100275.59
2019-01-02T20:23:26.854Z,100266.54
2019-01-02T20:26:05.280Z,100274.69
2019-01-02T20:28:37.081Z,100274.33
2019-01-02T20:31:18.650Z,100292.28
2019-01-02T20:33:52.409Z,100294.08
2019-01-02T20:36:26.064Z,100290.66
2019-01-02T20:39:00.605Z,100294.47
2019-01-02T20:41:42.882Z,100289.75
2019-01-02T20:44:13.498Z,100288.13
2019-01-02T20:46:45.430Z,100291.76
2019-01-02T20:49:17.169Z,100292.28
2019-01-02T20:51:50.145Z,100289.92
2019-01-02T20:54:24.558Z,100284.14
2019-01-02T20:56:57.564Z,100285.95
2019-01-02T20:59:40.422Z,100288.30
2019-01-02T21:02:11.727Z,100295.91
2019-01-02T21:04:42.619Z,100297.89
2019-01-02T21:07:15.529Z,100297.01
2019-01-02T21:09:48.250Z,100305.88
2019-01-02T21:12:23.071Z,100299.36
2019-01-02T21:14:56.301Z,100301.34
2019-01-02T21:17:29.554Z,100306.59
2019-01-02T21:20:02.719Z,100304.97
2019-01-02T21:22:33.430Z,100305.32
2019-01-02T21:25:09.933Z,100300.81
2019-01-02T21:27:40.496Z,100297.89
2019-01-02T21:30:13.172Z,100300.98
2019-01-02T21:32:47.313Z,100296.09
2019-01-02T21:35:19.218Z,100308.25
2019-01-02T21:37:51.173Z,100301.52
2019-01-02T21:40:22.320Z,100302.26
2019-01-02T21:42:54.286Z,100299.90
2019-01-02T21:45:24.963Z,100305.33
2019-01-02T21:47:57.440Z,100300.42
2019-01-02T21:50:28.029Z,100297.19
2019-01-02T21:52:59.205Z,100298.63
2019-01-02T21:55:29.865Z,100292.81
2019-01-02T21:58:01.907Z,100291.76
2019-01-02T22:00:32.687Z,100286.47
2019-01-02T22:03:03.777Z,100290.28
2019-01-02T22:05:34.528Z,100293.20
2019-01-02T22:08:05.244Z,100284.14
2019-01-02T22:10:36.956Z,100291.76
2019-01-02T22:13:07.726Z,100285.59
2019-01-02T22:15:38.468Z,100286.12
2019-01-02T22:18:09.678Z,100285.02
2019-01-02T22:20:40.582Z,100285.02
2019-01-02T22:23:11.279Z,100292.28
2019-01-02T22:25:41.894Z,100290.66
2019-01-02T22:28:12.520Z,100293.38
2019-01-02T22:30:43.540Z,100295.91
2019-01-02T22:33:14.158Z,100285.77
2019-01-02T22:35:44.670Z,100294.64
2019-01-02T22:38:15.230Z,100296.80
2019-01-02T22:40:45.687Z,100306.41
2019-01-02T22:43:16.428Z,100306.95
2019-01-02T22:45:47.016Z,100302.61
2019-01-02T22:48:17.409Z,100308.03
2019-01-02T22:50:47.899Z,100304.97
2019-01-02T22:53:18.353Z,100310.97
2019-01-02T22:55:48.828Z,100305.67
2019-01-02T22:58:19.525Z,100302.61
2019-01-02T23:01:09.478Z,100303.88
2019-01-02T23:03:58.878Z,100308.95
2019-01-02T23:06:48.280Z,100303.88
2019-01-02T23:09:37.637Z,100306.41
2019-01-02T23:12:27.002Z,100310.75
2019-01-02T23:15:16.515Z,100301.16
2019-01-02T23:18:05.948Z,100315.65
2019-01-02T23:20:56.003Z,100321.81
2019-01-02T23:23:45.469Z,100325.45
2019-01-02T23:26:34.986Z,100329.78
2019-01-02T23:29:24.384Z,100331.44
2019-01-02T23:32:13.943Z,100331.23
2019-01-02T23:35:03.347Z,100322.34
2019-01-02T23:37:52.908Z,100321.28
2019-01-02T23:40:42.488Z,100335.95
2019-01-02T23:43:31.878Z,100341.20
2019-01-02T23:46:21.408Z,100337.05
2019-01-02T23:49:10.949Z,100335.95
2019-01-02T23:52:00.498Z,100335.95
2019-01-02T23:54:51.047Z,100335.59
2019-01-02T23:57:40.552Z,100340.11
